Cirencester, United Kingdom
Current Conditions -  °F | °C
As of 12:58 AM on Sunday 23 Nov 2014 (Local Time) from EGVA Reporting Station
Scattered Clouds Scattered Clouds  
Wind Chill: 49°   Ceiling: Unl
Heat Index: 49°   Visibility: 6mi
Dew Point: 48°   Wind: 2mph
Humidity: 99%   Direction: 330°NNW
Pressure: 29.97"   Gusts: NA
Location:  51.72°N, 1.97°W
Report Text: EGVA 230058Z AUTO 33002KT 9999 SCT085 09/09 A2997 RMK AO2 RAE0049DZB0049E0053 SLP153 P0000 T00920090 $
Loading
Personal Weather Stations






























Interactive Weather Map New forecast layout! Learn more

10-Day Weather Forecast

Advertisements
Track Severe Weather on mobile